Impacts METAR Board INFO
IDs:

KBWI - Baltimore-Washington, MD, US

Updated at: 1257 UTC 16 Dec 2017
Potential Impact None Slight Moderate High
Time16/00Z 16/01Z 16/02Z 16/03Z 16/04Z 16/05Z 16/06Z 16/07Z 16/08Z 16/09Z 16/10Z 16/11Z 16/12Z
VIS8 7 7 7 6 6 6 7 7 9 9 9 9
CIG-- -- -- 60 -- -- -- 60 55 -- -- -- --
CoverSCTFEWFEWBKNFEWFEWSCTBKNBKNFEWFEWFEWFEW
FltCatVFRVFRVFRVFRVFRVFRVFRVFRVFRVFRVFRVFRVFR
WX--------BRBRBR------------
WDir25024023022000230240220220210200200
WSpd3 3 3 3 0 0 3 4 3 5 7 5 5
WGst-- -- -- -- -- -- -- -- -- -- -- -- --
Raw hourly METARs
KBWI 152354Z 25003KT 8SM FEW044 FEW140 SCT250 M06/M06 A2996 RMK AO2 SLP148 4/001 60009 I1000 I6000 T10561056 11028 21061 53008
KBWI 160054Z 24003KT 7SM FEW045 M05/M06 A2998 RMK AO2 SLP152 I1000 T10501056
KBWI 160154Z 23003KT 7SM FEW045 M07/M07 A2999 RMK AO2 SLP158 I1000 T10671072
KBWI 160254Z 22003KT 7SM BKN060 M07/M07 A3000 RMK AO2 SLP160 I1000 I3000 T10671072 51012
KBWI 160354Z 00000KT 6SM BR FEW060 M07/M07 A3000 RMK AO2 SLP160 I1000 T10671072
KBWI 160454Z 00000KT 6SM BR FEW060 M07/M08 A3001 RMK AO2 SLP164 I1000 T10721078 410171072
KBWI 160554Z COR 23003KT 6SM BR SCT060 M07/M07 A3003 RMK AO2 SLP169 4/001 I6000 T10671072 11050 21078 53009
KBWI 160654Z 24004KT 7SM BKN060 M04/M05 A3003 RMK AO2 SLP171 T10391050
KBWI 160754Z 22003KT 7SM BKN055 M04/M04 A3006 RMK AO2 SLP179 T10391044
KBWI 160854Z 22005KT 9SM FEW065 M03/M06 A3007 RMK AO2 SLP185 I1001 I3001 T10331061 53015
KBWI 160954Z 21007KT 9SM FEW065 M04/M06 A3008 RMK AO2 SLP186 T10391056
KBWI 161054Z 20005KT 9SM FEW060 M04/M06 A3011 RMK AO2 SLP197 T10391056
KBWI 161154Z 20005KT 9SM FEW060 FEW250 M03/M06 A3012 RMK AO2 SLP200 4/001 70010 I6001 T10331061 11033 21067 53015